sensor_id;sensor_type;location;lat;lon;timestamp;P1;durP1;ratioP1;P2;durP2;ratioP2
46777;SDS011;32536;47.128;8.746;2022-08-18T00:00:07;1.65;;;1.05;;
46777;SDS011;32536;47.128;8.746;2022-08-18T00:02:39;1.50;;;1.00;;
46777;SDS011;32536;47.128;8.746;2022-08-18T00:05:08;1.73;;;1.20;;
46777;SDS011;32536;47.128;8.746;2022-08-18T00:07:39;2.08;;;1.38;;
46777;SDS011;32536;47.128;8.746;2022-08-18T00:10:06;1.65;;;0.95;;
46777;SDS011;32536;47.128;8.746;2022-08-18T00:12:35;1.65;;;0.85;;
46777;SDS011;32536;47.128;8.746;2022-08-18T00:15:09;1.63;;;1.10;;
46777;SDS011;32536;47.128;8.746;2022-08-18T00:17:39;2.65;;;1.40;;
46777;SDS011;32536;47.128;8.746;2022-08-18T00:20:08;2.40;;;1.40;;
46777;SDS011;32536;47.128;8.746;2022-08-18T00:22:44;2.47;;;1.48;;
46777;SDS011;32536;47.128;8.746;2022-08-18T00:25:12;2.33;;;1.42;;
46777;SDS011;32536;47.128;8.746;2022-08-18T00:27:42;2.58;;;1.30;;
46777;SDS011;32536;47.128;8.746;2022-08-18T00:30:10;2.08;;;1.15;;
46777;SDS011;32536;47.128;8.746;2022-08-18T00:32:48;2.70;;;1.50;;
46777;SDS011;32536;47.128;8.746;2022-08-18T00:35:23;2.97;;;1.45;;
46777;SDS011;32536;47.128;8.746;2022-08-18T00:38:00;2.97;;;1.52;;
46777;SDS011;32536;47.128;8.746;2022-08-18T00:40:33;1.80;;;1.15;;
46777;SDS011;32536;47.128;8.746;2022-08-18T00:43:06;2.10;;;1.17;;
46777;SDS011;32536;47.128;8.746;2022-08-18T00:45:44;1.77;;;1.40;;
46777;SDS011;32536;47.128;8.746;2022-08-18T00:48:12;1.45;;;0.90;;
46777;SDS011;32536;47.128;8.746;2022-08-18T00:50:47;1.50;;;0.93;;
46777;SDS011;32536;47.128;8.746;2022-08-18T00:53:43;1.55;;;0.80;;
46777;SDS011;32536;47.128;8.746;2022-08-18T00:56:22;1.65;;;1.27;;
46777;SDS011;32536;47.128;8.746;2022-08-18T00:59:02;1.55;;;1.20;;
46777;SDS011;32536;47.128;8.746;2022-08-18T01:01:40;1.98;;;1.52;;
46777;SDS011;32536;47.128;8.746;2022-08-18T01:04:25;1.42;;;1.20;;
46777;SDS011;32536;47.128;8.746;2022-08-18T01:07:08;3.10;;;1.55;;
46777;SDS011;32536;47.128;8.746;2022-08-18T01:09:46;2.28;;;1.13;;
46777;SDS011;32536;47.128;8.746;2022-08-18T01:12:14;1.70;;;1.10;;
46777;SDS011;32536;47.128;8.746;2022-08-18T01:14:40;2.08;;;1.33;;
46777;SDS011;32536;47.128;8.746;2022-08-18T01:17:07;1.75;;;1.33;;
46777;SDS011;32536;47.128;8.746;2022-08-18T01:19:53;2.10;;;1.48;;
46777;SDS011;32536;47.128;8.746;2022-08-18T01:25:16;2.08;;;1.23;;
46777;SDS011;32536;47.128;8.746;2022-08-18T01:28:14;2.72;;;1.83;;
46777;SDS011;32536;47.128;8.746;2022-08-18T01:30:46;2.10;;;1.20;;
46777;SDS011;32536;47.128;8.746;2022-08-18T01:33:17;1.92;;;1.45;;
46777;SDS011;32536;47.128;8.746;2022-08-18T01:35:45;2.10;;;1.35;;
46777;SDS011;32536;47.128;8.746;2022-08-18T01:38:15;1.98;;;0.98;;
46777;SDS011;32536;47.128;8.746;2022-08-18T01:40:44;1.90;;;1.10;;
46777;SDS011;32536;47.128;8.746;2022-08-18T01:43:12;2.33;;;1.38;;
46777;SDS011;32536;47.128;8.746;2022-08-18T01:45:40;2.53;;;1.60;;
46777;SDS011;32536;47.128;8.746;2022-08-18T01:48:07;1.75;;;1.10;;
46777;SDS011;32536;47.128;8.746;2022-08-18T01:50:35;1.83;;;1.00;;
46777;SDS011;32536;47.128;8.746;2022-08-18T01:53:04;2.72;;;1.50;;
46777;SDS011;32536;47.128;8.746;2022-08-18T01:55:33;1.70;;;1.40;;
46777;SDS011;32536;47.128;8.746;2022-08-18T01:58:01;1.60;;;1.08;;
46777;SDS011;32536;47.128;8.746;2022-08-18T02:00:29;1.90;;;1.20;;
46777;SDS011;32536;47.128;8.746;2022-08-18T02:02:57;1.95;;;1.02;;
46777;SDS011;32536;47.128;8.746;2022-08-18T02:05:37;2.15;;;1.45;;
46777;SDS011;32536;47.128;8.746;2022-08-18T02:08:11;2.15;;;1.23;;
46777;SDS011;32536;47.128;8.746;2022-08-18T02:10:40;2.35;;;1.38;;
46777;SDS011;32536;47.128;8.746;2022-08-18T02:13:07;1.90;;;1.20;;
46777;SDS011;32536;47.128;8.746;2022-08-18T02:15:34;1.48;;;0.68;;
46777;SDS011;32536;47.128;8.746;2022-08-18T02:18:01;1.23;;;0.85;;
46777;SDS011;32536;47.128;8.746;2022-08-18T02:20:28;2.28;;;1.20;;
46777;SDS011;32536;47.128;8.746;2022-08-18T02:22:54;2.35;;;1.63;;
46777;SDS011;32536;47.128;8.746;2022-08-18T02:25:23;1.73;;;1.05;;
46777;SDS011;32536;47.128;8.746;2022-08-18T02:27:50;1.90;;;1.20;;
46777;SDS011;32536;47.128;8.746;2022-08-18T02:30:17;1.58;;;0.77;;
46777;SDS011;32536;47.128;8.746;2022-08-18T02:32:44;1.45;;;1.13;;
46777;SDS011;32536;47.128;8.746;2022-08-18T02:35:11;1.50;;;1.15;;
46777;SDS011;32536;47.128;8.746;2022-08-18T02:37:38;2.80;;;0.98;;
46777;SDS011;32536;47.128;8.746;2022-08-18T02:40:06;1.67;;;1.23;;
46777;SDS011;32536;47.128;8.746;2022-08-18T02:42:35;1.63;;;0.90;;
46777;SDS011;32536;47.128;8.746;2022-08-18T02:45:03;2.53;;;1.60;;
46777;SDS011;32536;47.128;8.746;2022-08-18T02:47:30;2.15;;;1.63;;
46777;SDS011;32536;47.128;8.746;2022-08-18T02:49:57;1.98;;;1.38;;
46777;SDS011;32536;47.128;8.746;2022-08-18T02:52:24;1.88;;;1.50;;
46777;SDS011;32536;47.128;8.746;2022-08-18T02:55:00;1.48;;;0.90;;
46777;SDS011;32536;47.128;8.746;2022-08-18T02:57:27;2.05;;;1.13;;
46777;SDS011;32536;47.128;8.746;2022-08-18T02:59:55;1.98;;;1.50;;
46777;SDS011;32536;47.128;8.746;2022-08-18T03:02:22;2.20;;;1.45;;
46777;SDS011;32536;47.128;8.746;2022-08-18T03:04:49;1.92;;;1.25;;
46777;SDS011;32536;47.128;8.746;2022-08-18T03:07:16;1.98;;;1.17;;
46777;SDS011;32536;47.128;8.746;2022-08-18T03:09:43;1.70;;;0.90;;
46777;SDS011;32536;47.128;8.746;2022-08-18T03:12:10;2.65;;;1.30;;
46777;SDS011;32536;47.128;8.746;2022-08-18T03:14:37;1.88;;;1.48;;
46777;SDS011;32536;47.128;8.746;2022-08-18T03:17:05;1.73;;;1.38;;
46777;SDS011;32536;47.128;8.746;2022-08-18T03:19:34;2.47;;;1.73;;
46777;SDS011;32536;47.128;8.746;2022-08-18T03:22:01;1.55;;;1.13;;
46777;SDS011;32536;47.128;8.746;2022-08-18T03:24:31;1.48;;;1.00;;
46777;SDS011;32536;47.128;8.746;2022-08-18T03:26:59;1.52;;;0.95;;
46777;SDS011;32536;47.128;8.746;2022-08-18T03:29:30;1.38;;;1.10;;
46777;SDS011;32536;47.128;8.746;2022-08-18T03:31:59;2.17;;;1.10;;
46777;SDS011;32536;47.128;8.746;2022-08-18T03:34:31;1.70;;;1.30;;
46777;SDS011;32536;47.128;8.746;2022-08-18T03:36:59;2.03;;;1.15;;
46777;SDS011;32536;47.128;8.746;2022-08-18T03:39:26;1.92;;;1.23;;
46777;SDS011;32536;47.128;8.746;2022-08-18T03:41:53;1.50;;;1.08;;
46777;SDS011;32536;47.128;8.746;2022-08-18T03:44:22;2.00;;;1.00;;
46777;SDS011;32536;47.128;8.746;2022-08-18T03:46:50;1.88;;;1.27;;
46777;SDS011;32536;47.128;8.746;2022-08-18T03:49:17;1.10;;;0.77;;
46777;SDS011;32536;47.128;8.746;2022-08-18T03:51:45;0.80;;;0.50;;
46777;SDS011;32536;47.128;8.746;2022-08-18T03:54:13;1.58;;;0.80;;
46777;SDS011;32536;47.128;8.746;2022-08-18T03:56:42;1.48;;;0.95;;
46777;SDS011;32536;47.128;8.746;2022-08-18T03:59:13;1.55;;;0.75;;
46777;SDS011;32536;47.128;8.746;2022-08-18T04:01:52;1.77;;;1.15;;
46777;SDS011;32536;47.128;8.746;2022-08-18T04:04:21;1.70;;;1.15;;
46777;SDS011;32536;47.128;8.746;2022-08-18T04:06:52;1.80;;;1.20;;
46777;SDS011;32536;47.128;8.746;2022-08-18T04:09:30;1.90;;;0.93;;
46777;SDS011;32536;47.128;8.746;2022-08-18T04:12:01;2.40;;;1.35;;
46777;SDS011;32536;47.128;8.746;2022-08-18T04:14:37;2.33;;;1.38;;
46777;SDS011;32536;47.128;8.746;2022-08-18T04:17:07;1.58;;;0.80;;
46777;SDS011;32536;47.128;8.746;2022-08-18T04:19:35;2.45;;;1.63;;
46777;SDS011;32536;47.128;8.746;2022-08-18T04:22:02;2.05;;;1.40;;
46777;SDS011;32536;47.128;8.746;2022-08-18T04:24:30;2.25;;;1.02;;
46777;SDS011;32536;47.128;8.746;2022-08-18T04:26:59;1.88;;;1.20;;
46777;SDS011;32536;47.128;8.746;2022-08-18T04:29:29;2.53;;;1.27;;
46777;SDS011;32536;47.128;8.746;2022-08-18T04:31:58;2.22;;;1.35;;
46777;SDS011;32536;47.128;8.746;2022-08-18T04:34:30;2.40;;;1.20;;
46777;SDS011;32536;47.128;8.746;2022-08-18T04:36:58;2.00;;;1.35;;
46777;SDS011;32536;47.128;8.746;2022-08-18T04:39:27;1.95;;;1.25;;
46777;SDS011;32536;47.128;8.746;2022-08-18T04:41:54;2.13;;;1.30;;
46777;SDS011;32536;47.128;8.746;2022-08-18T04:44:21;3.50;;;1.80;;
46777;SDS011;32536;47.128;8.746;2022-08-18T04:46:49;2.85;;;1.55;;
46777;SDS011;32536;47.128;8.746;2022-08-18T04:49:20;2.13;;;1.25;;
46777;SDS011;32536;47.128;8.746;2022-08-18T04:51:50;2.13;;;1.23;;
46777;SDS011;32536;47.128;8.746;2022-08-18T04:54:37;1.90;;;1.25;;
46777;SDS011;32536;47.128;8.746;2022-08-18T04:57:09;1.65;;;1.15;;
46777;SDS011;32536;47.128;8.746;2022-08-18T04:59:42;2.35;;;1.45;;
46777;SDS011;32536;47.128;8.746;2022-08-18T05:02:12;2.22;;;1.58;;
46777;SDS011;32536;47.128;8.746;2022-08-18T05:04:41;2.08;;;1.30;;
46777;SDS011;32536;47.128;8.746;2022-08-18T05:07:12;1.45;;;1.08;;
46777;SDS011;32536;47.128;8.746;2022-08-18T05:09:41;2.38;;;1.40;;
46777;SDS011;32536;47.128;8.746;2022-08-18T05:12:09;3.25;;;1.42;;
46777;SDS011;32536;47.128;8.746;2022-08-18T05:14:39;2.45;;;1.73;;
46777;SDS011;32536;47.128;8.746;2022-08-18T05:17:09;1.77;;;0.90;;
46777;SDS011;32536;47.128;8.746;2022-08-18T05:19:37;2.88;;;1.13;;
46777;SDS011;32536;47.128;8.746;2022-08-18T05:22:04;2.33;;;1.40;;
46777;SDS011;32536;47.128;8.746;2022-08-18T05:24:32;2.40;;;1.35;;
46777;SDS011;32536;47.128;8.746;2022-08-18T05:27:00;2.13;;;0.93;;
46777;SDS011;32536;47.128;8.746;2022-08-18T05:29:29;2.72;;;1.85;;
46777;SDS011;32536;47.128;8.746;2022-08-18T05:32:02;2.80;;;1.50;;
46777;SDS011;32536;47.128;8.746;2022-08-18T05:34:32;1.85;;;0.90;;
46777;SDS011;32536;47.128;8.746;2022-08-18T05:37:08;2.08;;;1.27;;
46777;SDS011;32536;47.128;8.746;2022-08-18T05:39:57;2.92;;;1.35;;
46777;SDS011;32536;47.128;8.746;2022-08-18T05:42:29;3.58;;;2.10;;
46777;SDS011;32536;47.128;8.746;2022-08-18T05:45:02;3.22;;;1.77;;
46777;SDS011;32536;47.128;8.746;2022-08-18T05:47:40;3.25;;;1.67;;
46777;SDS011;32536;47.128;8.746;2022-08-18T05:50:10;2.58;;;1.80;;
46777;SDS011;32536;47.128;8.746;2022-08-18T05:55:38;1.80;;;1.35;;
46777;SDS011;32536;47.128;8.746;2022-08-18T05:58:39;1.60;;;1.30;;
46777;SDS011;32536;47.128;8.746;2022-08-18T06:01:16;2.33;;;1.65;;
46777;SDS011;32536;47.128;8.746;2022-08-18T06:03:50;1.67;;;0.82;;
46777;SDS011;32536;47.128;8.746;2022-08-18T06:06:28;1.67;;;1.15;;
46777;SDS011;32536;47.128;8.746;2022-08-18T06:11:38;3.08;;;1.73;;
46777;SDS011;32536;47.128;8.746;2022-08-18T06:14:05;2.78;;;1.60;;
46777;SDS011;32536;47.128;8.746;2022-08-18T06:28:23;1.73;;;1.00;;
46777;SDS011;32536;47.128;8.746;2022-08-18T06:31:28;1.80;;;1.10;;
46777;SDS011;32536;47.128;8.746;2022-08-18T06:34:13;1.73;;;1.20;;
46777;SDS011;32536;47.128;8.746;2022-08-18T06:37:10;1.75;;;1.17;;
46777;SDS011;32536;47.128;8.746;2022-08-18T06:39:47;2.08;;;1.10;;
46777;SDS011;32536;47.128;8.746;2022-08-18T06:42:20;1.30;;;0.80;;
46777;SDS011;32536;47.128;8.746;2022-08-18T06:44:52;2.03;;;1.10;;
46777;SDS011;32536;47.128;8.746;2022-08-18T06:50:41;2.20;;;1.13;;
46777;SDS011;32536;47.128;8.746;2022-08-18T06:53:19;1.88;;;0.98;;
46777;SDS011;32536;47.128;8.746;2022-08-18T06:55:47;1.65;;;0.80;;
46777;SDS011;32536;47.128;8.746;2022-08-18T07:03:20;1.80;;;1.08;;
46777;SDS011;32536;47.128;8.746;2022-08-18T07:06:10;2.40;;;1.70;;
46777;SDS011;32536;47.128;8.746;2022-08-18T07:08:48;2.08;;;1.33;;
46777;SDS011;32536;47.128;8.746;2022-08-18T07:11:33;2.03;;;0.90;;
46777;SDS011;32536;47.128;8.746;2022-08-18T07:16:38;3.03;;;1.42;;
46777;SDS011;32536;47.128;8.746;2022-08-18T07:19:12;1.88;;;0.93;;
46777;SDS011;32536;47.128;8.746;2022-08-18T07:21:45;2.10;;;0.88;;
46777;SDS011;32536;47.128;8.746;2022-08-18T07:24:28;2.20;;;0.93;;
46777;SDS011;32536;47.128;8.746;2022-08-18T07:27:06;2.92;;;1.58;;
46777;SDS011;32536;47.128;8.746;2022-08-18T07:29:41;4.18;;;2.63;;
46777;SDS011;32536;47.128;8.746;2022-08-18T07:32:31;2.78;;;1.35;;
46777;SDS011;32536;47.128;8.746;2022-08-18T07:35:24;3.45;;;1.75;;
46777;SDS011;32536;47.128;8.746;2022-08-18T07:38:53;3.47;;;1.80;;
46777;SDS011;32536;47.128;8.746;2022-08-18T07:41:24;3.78;;;1.83;;
46777;SDS011;32536;47.128;8.746;2022-08-18T07:46:59;3.78;;;1.90;;
46777;SDS011;32536;47.128;8.746;2022-08-18T07:49:33;3.20;;;1.52;;
46777;SDS011;32536;47.128;8.746;2022-08-18T07:52:06;2.72;;;1.67;;
46777;SDS011;32536;47.128;8.746;2022-08-18T08:11:55;1.55;;;0.85;;
46777;SDS011;32536;47.128;8.746;2022-08-18T08:14:38;1.63;;;0.95;;
46777;SDS011;32536;47.128;8.746;2022-08-18T08:22:33;2.35;;;1.42;;
46777;SDS011;32536;47.128;8.746;2022-08-18T08:34:21;2.47;;;1.13;;
46777;SDS011;32536;47.128;8.746;2022-08-18T08:37:05;2.42;;;1.15;;
46777;SDS011;32536;47.128;8.746;2022-08-18T08:42:53;2.33;;;1.10;;
46777;SDS011;32536;47.128;8.746;2022-08-18T08:45:34;2.35;;;1.40;;
46777;SDS011;32536;47.128;8.746;2022-08-18T08:48:16;1.95;;;0.80;;
46777;SDS011;32536;47.128;8.746;2022-08-18T08:50:51;2.08;;;1.20;;
46777;SDS011;32536;47.128;8.746;2022-08-18T08:53:52;1.45;;;0.95;;
46777;SDS011;32536;47.128;8.746;2022-08-18T08:56:32;2.83;;;1.55;;
46777;SDS011;32536;47.128;8.746;2022-08-18T08:59:06;4.50;;;2.25;;
46777;SDS011;32536;47.128;8.746;2022-08-18T09:02:46;2.60;;;1.05;;
46777;SDS011;32536;47.128;8.746;2022-08-18T09:05:05;4.45;;;1.80;;
46777;SDS011;32536;47.128;8.746;2022-08-18T09:36:26;2.78;;;1.25;;
46777;SDS011;32536;47.128;8.746;2022-08-18T09:39:20;2.33;;;1.00;;
46777;SDS011;32536;47.128;8.746;2022-08-18T09:42:34;3.70;;;2.75;;
46777;SDS011;32536;47.128;8.746;2022-08-18T09:45:08;3.22;;;1.77;;
46777;SDS011;32536;47.128;8.746;2022-08-18T09:47:56;4.28;;;2.35;;
46777;SDS011;32536;47.128;8.746;2022-08-18T09:50:36;3.30;;;1.85;;
46777;SDS011;32536;47.128;8.746;2022-08-18T10:03:00;1.52;;;0.77;;
46777;SDS011;32536;47.128;8.746;2022-08-18T10:05:54;1.83;;;1.10;;
46777;SDS011;32536;47.128;8.746;2022-08-18T10:10:38;2.05;;;1.00;;
46777;SDS011;32536;47.128;8.746;2022-08-18T10:16:24;2.67;;;0.90;;
46777;SDS011;32536;47.128;8.746;2022-08-18T10:24:33;2.55;;;1.20;;
46777;SDS011;32536;47.128;8.746;2022-08-18T10:27:34;2.67;;;1.33;;
46777;SDS011;32536;47.128;8.746;2022-08-18T10:32:58;4.32;;;2.20;;
46777;SDS011;32536;47.128;8.746;2022-08-18T10:38:14;3.75;;;2.28;;
46777;SDS011;32536;47.128;8.746;2022-08-18T10:41:02;4.03;;;1.58;;
46777;SDS011;32536;47.128;8.746;2022-08-18T10:43:45;2.92;;;1.35;;
46777;SDS011;32536;47.128;8.746;2022-08-18T10:46:22;3.90;;;2.17;;
46777;SDS011;32536;47.128;8.746;2022-08-18T10:49:14;3.67;;;1.58;;
46777;SDS011;32536;47.128;8.746;2022-08-18T11:03:26;2.85;;;1.25;;
46777;SDS011;32536;47.128;8.746;2022-08-18T11:06:02;3.25;;;2.30;;
46777;SDS011;32536;47.128;8.746;2022-08-18T11:08:33;3.13;;;1.67;;
46777;SDS011;32536;47.128;8.746;2022-08-18T11:11:09;3.40;;;1.83;;
46777;SDS011;32536;47.128;8.746;2022-08-18T11:19:58;3.22;;;1.80;;
46777;SDS011;32536;47.128;8.746;2022-08-18T11:22:31;2.83;;;1.58;;
46777;SDS011;32536;47.128;8.746;2022-08-18T11:27:32;3.50;;;2.00;;
46777;SDS011;32536;47.128;8.746;2022-08-18T11:30:01;3.33;;;1.83;;
46777;SDS011;32536;47.128;8.746;2022-08-18T11:32:33;2.75;;;1.42;;
46777;SDS011;32536;47.128;8.746;2022-08-18T11:35:05;3.38;;;2.03;;
46777;SDS011;32536;47.128;8.746;2022-08-18T11:37:49;3.67;;;1.67;;
46777;SDS011;32536;47.128;8.746;2022-08-18T11:43:05;3.10;;;1.77;;
46777;SDS011;32536;47.128;8.746;2022-08-18T11:45:52;4.40;;;2.10;;
46777;SDS011;32536;47.128;8.746;2022-08-18T11:54:21;5.32;;;3.45;;
46777;SDS011;32536;47.128;8.746;2022-08-18T11:57:26;5.20;;;2.70;;
46777;SDS011;32536;47.128;8.746;2022-08-18T11:59:56;5.88;;;3.42;;
46777;SDS011;32536;47.128;8.746;2022-08-18T12:02:24;5.53;;;3.47;;
46777;SDS011;32536;47.128;8.746;2022-08-18T12:04:52;5.22;;;2.53;;
46777;SDS011;32536;47.128;8.746;2022-08-18T12:07:31;6.00;;;3.85;;
46777;SDS011;32536;47.128;8.746;2022-08-18T12:12:50;4.35;;;2.25;;
46777;SDS011;32536;47.128;8.746;2022-08-18T12:17:46;4.85;;;2.55;;
46777;SDS011;32536;47.128;8.746;2022-08-18T12:20:14;4.80;;;2.92;;
46777;SDS011;32536;47.128;8.746;2022-08-18T12:22:43;5.85;;;3.25;;
46777;SDS011;32536;47.128;8.746;2022-08-18T12:25:12;4.32;;;2.15;;
46777;SDS011;32536;47.128;8.746;2022-08-18T12:27:42;5.65;;;3.75;;
46777;SDS011;32536;47.128;8.746;2022-08-18T12:30:09;4.65;;;2.50;;
46777;SDS011;32536;47.128;8.746;2022-08-18T12:32:37;4.85;;;2.78;;
46777;SDS011;32536;47.128;8.746;2022-08-18T12:35:06;4.55;;;2.30;;
46777;SDS011;32536;47.128;8.746;2022-08-18T12:37:42;4.28;;;2.33;;
46777;SDS011;32536;47.128;8.746;2022-08-18T12:40:10;4.00;;;2.28;;
46777;SDS011;32536;47.128;8.746;2022-08-18T12:42:37;4.80;;;2.65;;
46777;SDS011;32536;47.128;8.746;2022-08-18T12:45:04;3.78;;;2.33;;
46777;SDS011;32536;47.128;8.746;2022-08-18T12:47:32;3.42;;;1.67;;
46777;SDS011;32536;47.128;8.746;2022-08-18T12:50:04;4.80;;;2.70;;
46777;SDS011;32536;47.128;8.746;2022-08-18T12:52:32;3.92;;;2.45;;
46777;SDS011;32536;47.128;8.746;2022-08-18T12:54:58;3.55;;;1.98;;
46777;SDS011;32536;47.128;8.746;2022-08-18T12:57:26;3.60;;;2.05;;
46777;SDS011;32536;47.128;8.746;2022-08-18T12:59:54;3.47;;;1.85;;
46777;SDS011;32536;47.128;8.746;2022-08-18T13:02:21;3.05;;;1.52;;
46777;SDS011;32536;47.128;8.746;2022-08-18T13:04:48;2.47;;;1.27;;
46777;SDS011;32536;47.128;8.746;2022-08-18T13:07:15;3.05;;;1.35;;
46777;SDS011;32536;47.128;8.746;2022-08-18T13:09:41;3.50;;;2.20;;
46777;SDS011;32536;47.128;8.746;2022-08-18T13:12:09;4.30;;;2.35;;
46777;SDS011;32536;47.128;8.746;2022-08-18T13:14:36;4.13;;;2.33;;
46777;SDS011;32536;47.128;8.746;2022-08-18T13:17:03;3.58;;;1.75;;
46777;SDS011;32536;47.128;8.746;2022-08-18T13:19:30;4.65;;;2.65;;
46777;SDS011;32536;47.128;8.746;2022-08-18T13:21:57;4.50;;;3.00;;
46777;SDS011;32536;47.128;8.746;2022-08-18T13:24:30;4.68;;;3.17;;
46777;SDS011;32536;47.128;8.746;2022-08-18T13:26:57;5.05;;;2.85;;
46777;SDS011;32536;47.128;8.746;2022-08-18T13:29:24;5.68;;;2.45;;
46777;SDS011;32536;47.128;8.746;2022-08-18T13:31:51;3.70;;;2.25;;
46777;SDS011;32536;47.128;8.746;2022-08-18T13:34:23;3.33;;;1.58;;
46777;SDS011;32536;47.128;8.746;2022-08-18T13:36:52;4.07;;;1.70;;
46777;SDS011;32536;47.128;8.746;2022-08-18T13:39:21;4.40;;;2.70;;
46777;SDS011;32536;47.128;8.746;2022-08-18T13:41:51;4.05;;;1.98;;
46777;SDS011;32536;47.128;8.746;2022-08-18T13:44:20;3.60;;;1.92;;
46777;SDS011;32536;47.128;8.746;2022-08-18T13:46:48;3.15;;;1.15;;
46777;SDS011;32536;47.128;8.746;2022-08-18T13:49:20;3.88;;;2.65;;
46777;SDS011;32536;47.128;8.746;2022-08-18T13:51:49;3.55;;;1.65;;
46777;SDS011;32536;47.128;8.746;2022-08-18T13:54:27;4.57;;;2.85;;
46777;SDS011;32536;47.128;8.746;2022-08-18T13:56:58;4.60;;;1.85;;
46777;SDS011;32536;47.128;8.746;2022-08-18T13:59:27;4.32;;;2.30;;
46777;SDS011;32536;47.128;8.746;2022-08-18T14:01:58;4.25;;;2.25;;
46777;SDS011;32536;47.128;8.746;2022-08-18T14:04:30;2.90;;;1.52;;
46777;SDS011;32536;47.128;8.746;2022-08-18T14:06:57;4.57;;;2.67;;
46777;SDS011;32536;47.128;8.746;2022-08-18T14:09:26;5.00;;;1.80;;
46777;SDS011;32536;47.128;8.746;2022-08-18T14:11:54;4.18;;;1.90;;
46777;SDS011;32536;47.128;8.746;2022-08-18T14:14:23;3.17;;;1.30;;
46777;SDS011;32536;47.128;8.746;2022-08-18T14:16:50;4.30;;;2.50;;
46777;SDS011;32536;47.128;8.746;2022-08-18T14:19:16;4.65;;;2.80;;
46777;SDS011;32536;47.128;8.746;2022-08-18T14:22:02;4.82;;;2.42;;
46777;SDS011;32536;47.128;8.746;2022-08-18T14:24:48;4.07;;;2.55;;
46777;SDS011;32536;47.128;8.746;2022-08-18T14:27:34;5.28;;;2.58;;
46777;SDS011;32536;47.128;8.746;2022-08-18T14:30:04;4.63;;;2.80;;
46777;SDS011;32536;47.128;8.746;2022-08-18T14:32:39;4.13;;;2.47;;
46777;SDS011;32536;47.128;8.746;2022-08-18T14:35:08;3.95;;;1.98;;
46777;SDS011;32536;47.128;8.746;2022-08-18T14:37:36;4.32;;;2.25;;
46777;SDS011;32536;47.128;8.746;2022-08-18T14:40:04;4.20;;;2.17;;
46777;SDS011;32536;47.128;8.746;2022-08-18T14:42:33;3.15;;;1.85;;
46777;SDS011;32536;47.128;8.746;2022-08-18T14:45:01;5.43;;;2.70;;
46777;SDS011;32536;47.128;8.746;2022-08-18T14:47:28;4.00;;;2.55;;
46777;SDS011;32536;47.128;8.746;2022-08-18T14:49:55;3.97;;;2.33;;
46777;SDS011;32536;47.128;8.746;2022-08-18T14:52:22;3.85;;;2.05;;
46777;SDS011;32536;47.128;8.746;2022-08-18T14:54:50;3.60;;;2.00;;
46777;SDS011;32536;47.128;8.746;2022-08-18T14:57:17;3.25;;;2.47;;
46777;SDS011;32536;47.128;8.746;2022-08-18T14:59:43;4.13;;;2.33;;
46777;SDS011;32536;47.128;8.746;2022-08-18T15:02:12;4.57;;;2.92;;
46777;SDS011;32536;47.128;8.746;2022-08-18T15:04:39;3.42;;;2.42;;
46777;SDS011;32536;47.128;8.746;2022-08-18T15:07:06;3.20;;;1.40;;
46777;SDS011;32536;47.128;8.746;2022-08-18T15:09:33;3.53;;;2.00;;
46777;SDS011;32536;47.128;8.746;2022-08-18T15:12:00;3.88;;;1.65;;
46777;SDS011;32536;47.128;8.746;2022-08-18T15:14:28;3.53;;;1.63;;
46777;SDS011;32536;47.128;8.746;2022-08-18T15:16:57;3.20;;;1.58;;
46777;SDS011;32536;47.128;8.746;2022-08-18T15:19:24;3.13;;;2.00;;
46777;SDS011;32536;47.128;8.746;2022-08-18T15:21:51;3.03;;;1.30;;
46777;SDS011;32536;47.128;8.746;2022-08-18T15:24:40;2.83;;;1.70;;
46777;SDS011;32536;47.128;8.746;2022-08-18T15:27:33;3.22;;;2.13;;
46777;SDS011;32536;47.128;8.746;2022-08-18T15:30:06;3.85;;;2.38;;
46777;SDS011;32536;47.128;8.746;2022-08-18T15:32:38;4.03;;;2.05;;
46777;SDS011;32536;47.128;8.746;2022-08-18T15:35:07;2.83;;;2.05;;
46777;SDS011;32536;47.128;8.746;2022-08-18T15:37:35;3.83;;;2.05;;
46777;SDS011;32536;47.128;8.746;2022-08-18T15:40:13;2.70;;;1.27;;
46777;SDS011;32536;47.128;8.746;2022-08-18T15:42:46;2.55;;;1.55;;
46777;SDS011;32536;47.128;8.746;2022-08-18T15:45:20;3.03;;;1.83;;
46777;SDS011;32536;47.128;8.746;2022-08-18T15:47:52;2.38;;;1.52;;
46777;SDS011;32536;47.128;8.746;2022-08-18T15:50:21;3.47;;;1.83;;
46777;SDS011;32536;47.128;8.746;2022-08-18T15:52:49;2.40;;;1.50;;
46777;SDS011;32536;47.128;8.746;2022-08-18T15:55:20;2.08;;;1.40;;
46777;SDS011;32536;47.128;8.746;2022-08-18T15:57:49;2.80;;;1.60;;
46777;SDS011;32536;47.128;8.746;2022-08-18T16:00:17;1.90;;;1.15;;
46777;SDS011;32536;47.128;8.746;2022-08-18T16:02:49;2.20;;;1.17;;
46777;SDS011;32536;47.128;8.746;2022-08-18T16:05:18;1.67;;;1.15;;
46777;SDS011;32536;47.128;8.746;2022-08-18T16:07:49;1.52;;;0.88;;
46777;SDS011;32536;47.128;8.746;2022-08-18T16:10:23;1.88;;;1.20;;
46777;SDS011;32536;47.128;8.746;2022-08-18T16:12:53;1.98;;;1.20;;
46777;SDS011;32536;47.128;8.746;2022-08-18T16:15:21;2.97;;;1.60;;
46777;SDS011;32536;47.128;8.746;2022-08-18T16:17:50;3.30;;;1.75;;
46777;SDS011;32536;47.128;8.746;2022-08-18T16:20:20;4.18;;;2.25;;
46777;SDS011;32536;47.128;8.746;2022-08-18T16:22:48;2.15;;;1.08;;
46777;SDS011;32536;47.128;8.746;2022-08-18T16:25:17;2.10;;;1.00;;
46777;SDS011;32536;47.128;8.746;2022-08-18T16:27:45;2.67;;;1.27;;
46777;SDS011;32536;47.128;8.746;2022-08-18T16:30:14;2.25;;;1.50;;
46777;SDS011;32536;47.128;8.746;2022-08-18T16:32:47;2.13;;;0.90;;
46777;SDS011;32536;47.128;8.746;2022-08-18T16:35:15;3.65;;;1.58;;
46777;SDS011;32536;47.128;8.746;2022-08-18T16:37:43;2.45;;;1.30;;
46777;SDS011;32536;47.128;8.746;2022-08-18T16:40:13;2.50;;;1.40;;
46777;SDS011;32536;47.128;8.746;2022-08-18T16:42:41;2.13;;;1.20;;
46777;SDS011;32536;47.128;8.746;2022-08-18T16:45:09;2.20;;;1.42;;
46777;SDS011;32536;47.128;8.746;2022-08-18T16:47:37;2.70;;;1.90;;
46777;SDS011;32536;47.128;8.746;2022-08-18T16:50:12;2.40;;;1.58;;
46777;SDS011;32536;47.128;8.746;2022-08-18T16:52:42;1.67;;;0.68;;
46777;SDS011;32536;47.128;8.746;2022-08-18T16:55:10;1.90;;;1.02;;
46777;SDS011;32536;47.128;8.746;2022-08-18T16:57:38;2.05;;;1.35;;
46777;SDS011;32536;47.128;8.746;2022-08-18T17:00:26;1.60;;;1.05;;
46777;SDS011;32536;47.128;8.746;2022-08-18T17:03:13;2.25;;;1.45;;
46777;SDS011;32536;47.128;8.746;2022-08-18T17:05:59;2.63;;;1.30;;
46777;SDS011;32536;47.128;8.746;2022-08-18T17:08:31;1.92;;;1.20;;
46777;SDS011;32536;47.128;8.746;2022-08-18T17:11:03;1.90;;;1.10;;
46777;SDS011;32536;47.128;8.746;2022-08-18T17:13:34;2.00;;;1.27;;
46777;SDS011;32536;47.128;8.746;2022-08-18T17:16:02;1.88;;;1.05;;
46777;SDS011;32536;47.128;8.746;2022-08-18T17:18:29;1.98;;;1.30;;
46777;SDS011;32536;47.128;8.746;2022-08-18T17:21:00;2.10;;;1.42;;
46777;SDS011;32536;47.128;8.746;2022-08-18T17:23:31;1.52;;;0.98;;
46777;SDS011;32536;47.128;8.746;2022-08-18T17:25:59;1.70;;;1.08;;
46777;SDS011;32536;47.128;8.746;2022-08-18T17:29:14;1.60;;;0.98;;
46777;SDS011;32536;47.128;8.746;2022-08-18T17:31:23;1.90;;;1.42;;
46777;SDS011;32536;47.128;8.746;2022-08-18T17:33:52;1.85;;;1.02;;
46777;SDS011;32536;47.128;8.746;2022-08-18T17:36:35;2.08;;;0.98;;
46777;SDS011;32536;47.128;8.746;2022-08-18T17:39:11;2.60;;;1.90;;
46777;SDS011;32536;47.128;8.746;2022-08-18T17:41:41;2.70;;;1.63;;
46777;SDS011;32536;47.128;8.746;2022-08-18T17:44:28;2.58;;;1.45;;
46777;SDS011;32536;47.128;8.746;2022-08-18T17:46:56;2.50;;;1.27;;
46777;SDS011;32536;47.128;8.746;2022-08-18T17:49:31;3.65;;;1.95;;
46777;SDS011;32536;47.128;8.746;2022-08-18T17:52:27;2.42;;;1.25;;
46777;SDS011;32536;47.128;8.746;2022-08-18T17:55:09;2.08;;;1.00;;
46777;SDS011;32536;47.128;8.746;2022-08-18T17:58:00;2.85;;;1.65;;
46777;SDS011;32536;47.128;8.746;2022-08-18T18:00:34;2.70;;;1.33;;